sensor_id;sensor_type;location;lat;lon;timestamp;P1;durP1;ratioP1;P2;durP2;ratioP2
8219;SDS011;4151;51.110;7.020;2023-08-20T00:01:56;14.93;;;7.33;;
8219;SDS011;4151;51.110;7.020;2023-08-20T00:04:24;11.83;;;8.10;;
8219;SDS011;4151;51.110;7.020;2023-08-20T00:06:52;13.47;;;9.30;;
8219;SDS011;4151;51.110;7.020;2023-08-20T00:09:17;11.53;;;8.27;;
8219;SDS011;4151;51.110;7.020;2023-08-20T00:11:43;13.83;;;8.27;;
8219;SDS011;4151;51.110;7.020;2023-08-20T00:14:14;14.83;;;7.90;;
8219;SDS011;4151;51.110;7.020;2023-08-20T00:16:41;13.87;;;8.07;;
8219;SDS011;4151;51.110;7.020;2023-08-20T00:19:07;13.50;;;8.70;;
8219;SDS011;4151;51.110;7.020;2023-08-20T00:21:33;17.80;;;8.03;;
8219;SDS011;4151;51.110;7.020;2023-08-20T00:23:59;15.90;;;8.37;;
8219;SDS011;4151;51.110;7.020;2023-08-20T00:26:24;13.00;;;8.60;;
8219;SDS011;4151;51.110;7.020;2023-08-20T00:28:50;12.70;;;8.30;;
8219;SDS011;4151;51.110;7.020;2023-08-20T00:31:16;23.53;;;8.90;;
8219;SDS011;4151;51.110;7.020;2023-08-20T00:33:41;17.63;;;8.40;;
8219;SDS011;4151;51.110;7.020;2023-08-20T00:36:07;15.90;;;9.23;;
8219;SDS011;4151;51.110;7.020;2023-08-20T00:38:32;22.40;;;9.03;;
8219;SDS011;4151;51.110;7.020;2023-08-20T00:40:58;16.53;;;8.23;;
8219;SDS011;4151;51.110;7.020;2023-08-20T00:43:24;12.57;;;9.03;;
8219;SDS011;4151;51.110;7.020;2023-08-20T00:45:49;21.67;;;9.20;;
8219;SDS011;4151;51.110;7.020;2023-08-20T00:48:15;14.07;;;8.53;;
8219;SDS011;4151;51.110;7.020;2023-08-20T00:50:42;13.63;;;8.43;;
8219;SDS011;4151;51.110;7.020;2023-08-20T00:53:08;13.30;;;8.03;;
8219;SDS011;4151;51.110;7.020;2023-08-20T00:55:36;20.07;;;9.40;;
8219;SDS011;4151;51.110;7.020;2023-08-20T00:58:02;16.83;;;8.57;;
8219;SDS011;4151;51.110;7.020;2023-08-20T01:00:28;14.87;;;9.20;;
8219;SDS011;4151;51.110;7.020;2023-08-20T01:02:54;14.50;;;8.83;;
8219;SDS011;4151;51.110;7.020;2023-08-20T01:05:19;15.17;;;8.90;;
8219;SDS011;4151;51.110;7.020;2023-08-20T01:07:48;18.03;;;8.63;;
8219;SDS011;4151;51.110;7.020;2023-08-20T01:13:14;14.80;;;8.93;;
8219;SDS011;4151;51.110;7.020;2023-08-20T01:15:40;22.00;;;9.57;;
8219;SDS011;4151;51.110;7.020;2023-08-20T01:18:05;17.73;;;8.70;;
8219;SDS011;4151;51.110;7.020;2023-08-20T01:20:33;15.90;;;9.13;;
8219;SDS011;4151;51.110;7.020;2023-08-20T01:23:42;17.13;;;8.73;;
8219;SDS011;4151;51.110;7.020;2023-08-20T01:26:35;11.87;;;8.50;;
8219;SDS011;4151;51.110;7.020;2023-08-20T01:29:11;14.67;;;9.47;;
8219;SDS011;4151;51.110;7.020;2023-08-20T01:31:38;13.50;;;9.40;;
8219;SDS011;4151;51.110;7.020;2023-08-20T01:34:04;15.93;;;9.83;;
8219;SDS011;4151;51.110;7.020;2023-08-20T01:36:30;13.50;;;8.40;;
8219;SDS011;4151;51.110;7.020;2023-08-20T01:38:56;13.80;;;9.80;;
8219;SDS011;4151;51.110;7.020;2023-08-20T01:41:21;14.60;;;9.17;;
8219;SDS011;4151;51.110;7.020;2023-08-20T01:43:47;12.40;;;8.80;;
8219;SDS011;4151;51.110;7.020;2023-08-20T01:46:12;13.07;;;9.27;;
8219;SDS011;4151;51.110;7.020;2023-08-20T01:48:38;12.30;;;9.17;;
8219;SDS011;4151;51.110;7.020;2023-08-20T01:51:03;16.10;;;9.80;;
8219;SDS011;4151;51.110;7.020;2023-08-20T01:53:29;21.13;;;10.10;;
8219;SDS011;4151;51.110;7.020;2023-08-20T01:55:54;12.30;;;9.70;;
8219;SDS011;4151;51.110;7.020;2023-08-20T01:58:20;24.50;;;9.90;;
8219;SDS011;4151;51.110;7.020;2023-08-20T02:00:46;15.80;;;9.20;;
8219;SDS011;4151;51.110;7.020;2023-08-20T02:03:12;17.23;;;9.60;;
8219;SDS011;4151;51.110;7.020;2023-08-20T02:05:38;18.50;;;8.30;;
8219;SDS011;4151;51.110;7.020;2023-08-20T02:08:04;13.80;;;10.00;;
8219;SDS011;4151;51.110;7.020;2023-08-20T02:10:29;14.00;;;9.07;;
8219;SDS011;4151;51.110;7.020;2023-08-20T02:12:55;15.37;;;9.77;;
8219;SDS011;4151;51.110;7.020;2023-08-20T02:15:20;13.33;;;9.60;;
8219;SDS011;4151;51.110;7.020;2023-08-20T02:17:46;16.93;;;9.57;;
8219;SDS011;4151;51.110;7.020;2023-08-20T02:20:11;16.40;;;8.50;;
8219;SDS011;4151;51.110;7.020;2023-08-20T02:22:37;15.30;;;9.23;;
8219;SDS011;4151;51.110;7.020;2023-08-20T02:25:03;13.00;;;9.07;;
8219;SDS011;4151;51.110;7.020;2023-08-20T02:27:28;14.40;;;9.97;;
8219;SDS011;4151;51.110;7.020;2023-08-20T02:29:54;15.23;;;9.97;;
8219;SDS011;4151;51.110;7.020;2023-08-20T02:32:20;20.10;;;8.70;;
8219;SDS011;4151;51.110;7.020;2023-08-20T02:34:49;16.83;;;9.30;;
8219;SDS011;4151;51.110;7.020;2023-08-20T02:37:16;17.27;;;9.77;;
8219;SDS011;4151;51.110;7.020;2023-08-20T02:39:41;16.13;;;10.07;;
8219;SDS011;4151;51.110;7.020;2023-08-20T02:42:07;12.50;;;8.70;;
8219;SDS011;4151;51.110;7.020;2023-08-20T02:44:32;10.13;;;8.23;;
8219;SDS011;4151;51.110;7.020;2023-08-20T02:46:58;16.00;;;9.40;;
8219;SDS011;4151;51.110;7.020;2023-08-20T02:49:23;13.47;;;9.20;;
8219;SDS011;4151;51.110;7.020;2023-08-20T02:51:49;15.00;;;9.27;;
8219;SDS011;4151;51.110;7.020;2023-08-20T02:54:14;16.97;;;9.53;;
8219;SDS011;4151;51.110;7.020;2023-08-20T02:56:40;11.20;;;9.17;;
8219;SDS011;4151;51.110;7.020;2023-08-20T02:59:06;13.30;;;8.90;;
8219;SDS011;4151;51.110;7.020;2023-08-20T03:01:32;17.87;;;9.00;;
8219;SDS011;4151;51.110;7.020;2023-08-20T03:03:57;13.30;;;9.23;;
8219;SDS011;4151;51.110;7.020;2023-08-20T03:06:23;12.30;;;8.40;;
8219;SDS011;4151;51.110;7.020;2023-08-20T03:08:48;10.77;;;8.07;;
8219;SDS011;4151;51.110;7.020;2023-08-20T03:11:14;12.67;;;8.23;;
8219;SDS011;4151;51.110;7.020;2023-08-20T03:13:40;15.77;;;9.03;;
8219;SDS011;4151;51.110;7.020;2023-08-20T03:16:05;11.73;;;9.23;;
8219;SDS011;4151;51.110;7.020;2023-08-20T03:18:31;12.50;;;8.07;;
8219;SDS011;4151;51.110;7.020;2023-08-20T03:20:56;21.63;;;8.30;;
8219;SDS011;4151;51.110;7.020;2023-08-20T03:23:22;11.53;;;8.53;;
8219;SDS011;4151;51.110;7.020;2023-08-20T03:25:49;14.13;;;8.77;;
8219;SDS011;4151;51.110;7.020;2023-08-20T03:28:14;15.13;;;7.93;;
8219;SDS011;4151;51.110;7.020;2023-08-20T03:30:40;19.30;;;9.03;;
8219;SDS011;4151;51.110;7.020;2023-08-20T03:33:06;12.13;;;8.77;;
8219;SDS011;4151;51.110;7.020;2023-08-20T03:35:31;17.03;;;8.37;;
8219;SDS011;4151;51.110;7.020;2023-08-20T03:37:57;17.00;;;10.30;;
8219;SDS011;4151;51.110;7.020;2023-08-20T03:40:22;14.13;;;9.10;;
8219;SDS011;4151;51.110;7.020;2023-08-20T03:42:48;12.03;;;7.93;;
8219;SDS011;4151;51.110;7.020;2023-08-20T03:45:14;16.60;;;9.00;;
8219;SDS011;4151;51.110;7.020;2023-08-20T03:47:39;16.37;;;8.70;;
8219;SDS011;4151;51.110;7.020;2023-08-20T03:50:09;14.03;;;9.57;;
8219;SDS011;4151;51.110;7.020;2023-08-20T03:52:35;14.67;;;8.60;;
8219;SDS011;4151;51.110;7.020;2023-08-20T03:55:01;19.97;;;9.70;;
8219;SDS011;4151;51.110;7.020;2023-08-20T03:57:27;12.50;;;8.80;;
8219;SDS011;4151;51.110;7.020;2023-08-20T03:59:53;20.17;;;9.63;;
8219;SDS011;4151;51.110;7.020;2023-08-20T04:02:19;18.03;;;9.53;;
8219;SDS011;4151;51.110;7.020;2023-08-20T04:04:44;12.27;;;9.63;;
8219;SDS011;4151;51.110;7.020;2023-08-20T04:07:10;18.03;;;8.53;;
8219;SDS011;4151;51.110;7.020;2023-08-20T04:09:35;15.93;;;9.43;;
8219;SDS011;4151;51.110;7.020;2023-08-20T04:12:01;16.30;;;8.57;;
8219;SDS011;4151;51.110;7.020;2023-08-20T04:14:28;15.40;;;9.77;;
8219;SDS011;4151;51.110;7.020;2023-08-20T04:16:54;13.53;;;8.40;;
8219;SDS011;4151;51.110;7.020;2023-08-20T04:19:19;15.77;;;9.43;;
8219;SDS011;4151;51.110;7.020;2023-08-20T04:21:45;14.23;;;9.20;;
8219;SDS011;4151;51.110;7.020;2023-08-20T04:24:10;14.20;;;8.33;;
8219;SDS011;4151;51.110;7.020;2023-08-20T04:26:36;15.63;;;8.27;;
8219;SDS011;4151;51.110;7.020;2023-08-20T04:29:02;12.37;;;8.43;;
8219;SDS011;4151;51.110;7.020;2023-08-20T04:31:28;9.50;;;8.30;;
8219;SDS011;4151;51.110;7.020;2023-08-20T04:33:53;13.73;;;8.47;;
8219;SDS011;4151;51.110;7.020;2023-08-20T04:36:19;14.87;;;8.80;;
8219;SDS011;4151;51.110;7.020;2023-08-20T04:38:45;14.03;;;9.77;;
8219;SDS011;4151;51.110;7.020;2023-08-20T04:41:11;13.60;;;8.37;;
8219;SDS011;4151;51.110;7.020;2023-08-20T04:43:36;13.53;;;9.10;;
8219;SDS011;4151;51.110;7.020;2023-08-20T04:46:02;14.43;;;8.20;;
8219;SDS011;4151;51.110;7.020;2023-08-20T04:48:27;17.33;;;8.93;;
8219;SDS011;4151;51.110;7.020;2023-08-20T04:50:53;17.53;;;10.50;;
8219;SDS011;4151;51.110;7.020;2023-08-20T04:53:18;15.37;;;9.60;;
8219;SDS011;4151;51.110;7.020;2023-08-20T04:55:44;12.90;;;9.30;;
8219;SDS011;4151;51.110;7.020;2023-08-20T04:58:09;15.30;;;10.20;;
8219;SDS011;4151;51.110;7.020;2023-08-20T05:00:35;15.83;;;10.43;;
8219;SDS011;4151;51.110;7.020;2023-08-20T05:03:00;15.30;;;10.10;;
8219;SDS011;4151;51.110;7.020;2023-08-20T05:05:26;27.13;;;12.50;;
8219;SDS011;4151;51.110;7.020;2023-08-20T05:07:52;16.47;;;10.83;;
8219;SDS011;4151;51.110;7.020;2023-08-20T05:10:17;20.80;;;11.63;;
8219;SDS011;4151;51.110;7.020;2023-08-20T05:12:43;19.23;;;11.90;;
8219;SDS011;4151;51.110;7.020;2023-08-20T05:15:08;18.67;;;11.90;;
8219;SDS011;4151;51.110;7.020;2023-08-20T05:17:34;13.50;;;10.70;;
8219;SDS011;4151;51.110;7.020;2023-08-20T05:20:00;15.57;;;10.40;;
8219;SDS011;4151;51.110;7.020;2023-08-20T05:22:25;15.00;;;8.53;;
8219;SDS011;4151;51.110;7.020;2023-08-20T05:24:51;13.10;;;10.03;;
8219;SDS011;4151;51.110;7.020;2023-08-20T05:27:16;16.10;;;9.23;;
8219;SDS011;4151;51.110;7.020;2023-08-20T05:29:42;13.17;;;9.60;;
8219;SDS011;4151;51.110;7.020;2023-08-20T05:32:08;18.40;;;10.10;;
8219;SDS011;4151;51.110;7.020;2023-08-20T05:34:34;13.70;;;9.23;;
8219;SDS011;4151;51.110;7.020;2023-08-20T05:37:00;18.13;;;8.77;;
8219;SDS011;4151;51.110;7.020;2023-08-20T05:39:26;14.47;;;9.50;;
8219;SDS011;4151;51.110;7.020;2023-08-20T05:41:52;18.60;;;9.50;;
8219;SDS011;4151;51.110;7.020;2023-08-20T05:44:18;15.33;;;10.50;;
8219;SDS011;4151;51.110;7.020;2023-08-20T05:46:44;13.60;;;9.20;;
8219;SDS011;4151;51.110;7.020;2023-08-20T05:49:10;17.57;;;10.30;;
8219;SDS011;4151;51.110;7.020;2023-08-20T05:51:35;15.43;;;9.90;;
8219;SDS011;4151;51.110;7.020;2023-08-20T05:54:01;14.30;;;9.33;;
8219;SDS011;4151;51.110;7.020;2023-08-20T05:56:26;13.43;;;8.77;;
8219;SDS011;4151;51.110;7.020;2023-08-20T05:58:52;16.20;;;9.97;;
8219;SDS011;4151;51.110;7.020;2023-08-20T06:01:17;11.37;;;8.43;;
8219;SDS011;4151;51.110;7.020;2023-08-20T06:03:43;14.80;;;8.90;;
8219;SDS011;4151;51.110;7.020;2023-08-20T06:06:08;15.43;;;8.53;;
8219;SDS011;4151;51.110;7.020;2023-08-20T06:08:34;14.27;;;9.40;;
8219;SDS011;4151;51.110;7.020;2023-08-20T06:10:59;15.67;;;8.70;;
8219;SDS011;4151;51.110;7.020;2023-08-20T06:13:25;16.40;;;9.47;;
8219;SDS011;4151;51.110;7.020;2023-08-20T06:15:51;12.97;;;8.97;;
8219;SDS011;4151;51.110;7.020;2023-08-20T06:18:16;19.70;;;9.67;;
8219;SDS011;4151;51.110;7.020;2023-08-20T06:20:42;10.50;;;8.13;;
8219;SDS011;4151;51.110;7.020;2023-08-20T06:23:07;15.90;;;10.67;;
8219;SDS011;4151;51.110;7.020;2023-08-20T06:25:33;14.40;;;10.47;;
8219;SDS011;4151;51.110;7.020;2023-08-20T06:27:58;25.77;;;10.50;;
8219;SDS011;4151;51.110;7.020;2023-08-20T06:30:24;15.43;;;9.43;;
8219;SDS011;4151;51.110;7.020;2023-08-20T06:32:49;14.40;;;10.20;;
8219;SDS011;4151;51.110;7.020;2023-08-20T06:35:15;22.53;;;10.30;;
8219;SDS011;4151;51.110;7.020;2023-08-20T06:37:41;16.90;;;9.50;;
8219;SDS011;4151;51.110;7.020;2023-08-20T06:40:06;15.47;;;9.17;;
8219;SDS011;4151;51.110;7.020;2023-08-20T06:42:33;18.20;;;10.07;;
8219;SDS011;4151;51.110;7.020;2023-08-20T06:44:58;14.07;;;8.90;;
8219;SDS011;4151;51.110;7.020;2023-08-20T06:47:24;15.87;;;9.30;;
8219;SDS011;4151;51.110;7.020;2023-08-20T06:49:50;13.80;;;9.80;;
8219;SDS011;4151;51.110;7.020;2023-08-20T06:52:16;13.20;;;7.93;;
8219;SDS011;4151;51.110;7.020;2023-08-20T06:54:41;15.10;;;9.07;;
8219;SDS011;4151;51.110;7.020;2023-08-20T06:57:07;13.00;;;7.93;;
8219;SDS011;4151;51.110;7.020;2023-08-20T06:59:33;20.60;;;9.90;;
8219;SDS011;4151;51.110;7.020;2023-08-20T07:01:58;14.40;;;10.20;;
8219;SDS011;4151;51.110;7.020;2023-08-20T07:04:24;12.23;;;9.33;;
8219;SDS011;4151;51.110;7.020;2023-08-20T07:06:50;16.03;;;8.30;;
8219;SDS011;4151;51.110;7.020;2023-08-20T07:09:16;14.40;;;9.87;;
8219;SDS011;4151;51.110;7.020;2023-08-20T07:11:41;11.17;;;7.83;;
8219;SDS011;4151;51.110;7.020;2023-08-20T07:14:07;15.80;;;9.50;;
8219;SDS011;4151;51.110;7.020;2023-08-20T07:16:32;13.00;;;9.03;;
8219;SDS011;4151;51.110;7.020;2023-08-20T07:18:58;12.00;;;8.47;;
8219;SDS011;4151;51.110;7.020;2023-08-20T07:21:24;11.17;;;8.83;;
8219;SDS011;4151;51.110;7.020;2023-08-20T07:23:49;14.73;;;10.17;;
8219;SDS011;4151;51.110;7.020;2023-08-20T07:26:15;12.10;;;9.20;;
8219;SDS011;4151;51.110;7.020;2023-08-20T07:28:40;15.90;;;8.83;;
8219;SDS011;4151;51.110;7.020;2023-08-20T07:31:24;13.00;;;9.30;;
8219;SDS011;4151;51.110;7.020;2023-08-20T07:33:52;17.20;;;9.07;;
8219;SDS011;4151;51.110;7.020;2023-08-20T07:36:19;12.40;;;8.50;;
8219;SDS011;4151;51.110;7.020;2023-08-20T07:38:48;13.17;;;8.50;;
8219;SDS011;4151;51.110;7.020;2023-08-20T07:41:14;13.73;;;8.57;;
8219;SDS011;4151;51.110;7.020;2023-08-20T07:43:40;11.60;;;8.63;;
8219;SDS011;4151;51.110;7.020;2023-08-20T07:46:06;15.30;;;9.47;;
8219;SDS011;4151;51.110;7.020;2023-08-20T07:48:33;13.73;;;10.00;;
8219;SDS011;4151;51.110;7.020;2023-08-20T07:50:59;15.80;;;10.63;;
8219;SDS011;4151;51.110;7.020;2023-08-20T07:53:25;15.00;;;9.83;;
8219;SDS011;4151;51.110;7.020;2023-08-20T07:55:50;17.50;;;11.03;;
8219;SDS011;4151;51.110;7.020;2023-08-20T07:58:16;16.23;;;10.17;;
8219;SDS011;4151;51.110;7.020;2023-08-20T08:00:42;19.30;;;11.53;;
8219;SDS011;4151;51.110;7.020;2023-08-20T08:03:08;15.50;;;11.23;;
8219;SDS011;4151;51.110;7.020;2023-08-20T08:05:34;23.57;;;10.93;;
8219;SDS011;4151;51.110;7.020;2023-08-20T08:08:00;17.30;;;10.80;;
8219;SDS011;4151;51.110;7.020;2023-08-20T08:10:26;18.10;;;11.43;;
8219;SDS011;4151;51.110;7.020;2023-08-20T08:12:51;16.50;;;11.27;;
8219;SDS011;4151;51.110;7.020;2023-08-20T08:15:17;17.73;;;10.40;;
8219;SDS011;4151;51.110;7.020;2023-08-20T08:17:44;16.77;;;11.00;;
8219;SDS011;4151;51.110;7.020;2023-08-20T08:20:09;17.13;;;11.07;;
8219;SDS011;4151;51.110;7.020;2023-08-20T08:22:35;14.00;;;9.50;;
8219;SDS011;4151;51.110;7.020;2023-08-20T08:25:00;21.50;;;11.40;;
8219;SDS011;4151;51.110;7.020;2023-08-20T08:27:26;18.37;;;11.50;;
8219;SDS011;4151;51.110;7.020;2023-08-20T08:29:52;15.67;;;9.90;;
8219;SDS011;4151;51.110;7.020;2023-08-20T08:32:17;14.33;;;9.60;;
8219;SDS011;4151;51.110;7.020;2023-08-20T08:34:43;19.50;;;10.27;;
8219;SDS011;4151;51.110;7.020;2023-08-20T08:37:08;13.63;;;9.00;;
8219;SDS011;4151;51.110;7.020;2023-08-20T08:39:34;13.33;;;8.50;;
8219;SDS011;4151;51.110;7.020;2023-08-20T08:42:05;13.83;;;9.60;;
8219;SDS011;4151;51.110;7.020;2023-08-20T08:44:32;16.20;;;9.00;;
8219;SDS011;4151;51.110;7.020;2023-08-20T08:46:58;13.30;;;8.60;;
8219;SDS011;4151;51.110;7.020;2023-08-20T08:49:24;13.20;;;8.80;;
8219;SDS011;4151;51.110;7.020;2023-08-20T08:51:51;11.27;;;8.80;;
8219;SDS011;4151;51.110;7.020;2023-08-20T08:54:21;11.50;;;9.47;;
8219;SDS011;4151;51.110;7.020;2023-08-20T08:56:47;14.77;;;8.30;;
8219;SDS011;4151;51.110;7.020;2023-08-20T08:59:13;11.27;;;7.93;;
8219;SDS011;4151;51.110;7.020;2023-08-20T09:01:40;23.83;;;12.83;;
8219;SDS011;4151;51.110;7.020;2023-08-20T09:04:06;12.90;;;9.17;;
8219;SDS011;4151;51.110;7.020;2023-08-20T09:06:48;13.97;;;8.70;;
8219;SDS011;4151;51.110;7.020;2023-08-20T09:09:16;11.43;;;7.30;;
8219;SDS011;4151;51.110;7.020;2023-08-20T09:11:42;9.60;;;6.83;;
8219;SDS011;4151;51.110;7.020;2023-08-20T09:14:16;12.03;;;6.23;;
8219;SDS011;4151;51.110;7.020;2023-08-20T09:16:56;8.87;;;6.33;;
8219;SDS011;4151;51.110;7.020;2023-08-20T09:19:27;8.43;;;5.67;;
8219;SDS011;4151;51.110;7.020;2023-08-20T09:21:55;10.40;;;5.73;;
8219;SDS011;4151;51.110;7.020;2023-08-20T09:24:25;12.37;;;6.93;;
8219;SDS011;4151;51.110;7.020;2023-08-20T09:26:57;9.10;;;5.77;;
8219;SDS011;4151;51.110;7.020;2023-08-20T09:29:24;9.37;;;5.60;;
8219;SDS011;4151;51.110;7.020;2023-08-20T09:31:50;7.60;;;5.20;;
8219;SDS011;4151;51.110;7.020;2023-08-20T09:34:24;9.53;;;4.83;;
8219;SDS011;4151;51.110;7.020;2023-08-20T09:36:50;8.70;;;4.27;;
8219;SDS011;4151;51.110;7.020;2023-08-20T09:39:15;6.13;;;4.20;;
8219;SDS011;4151;51.110;7.020;2023-08-20T09:41:41;7.10;;;3.33;;
8219;SDS011;4151;51.110;7.020;2023-08-20T09:44:08;4.40;;;3.83;;
8219;SDS011;4151;51.110;7.020;2023-08-20T09:46:34;6.33;;;4.37;;
8219;SDS011;4151;51.110;7.020;2023-08-20T09:49:01;5.13;;;3.40;;
8219;SDS011;4151;51.110;7.020;2023-08-20T09:51:29;7.10;;;5.00;;
8219;SDS011;4151;51.110;7.020;2023-08-20T09:54:00;11.43;;;4.40;;
8219;SDS011;4151;51.110;7.020;2023-08-20T09:56:38;8.67;;;4.50;;
8219;SDS011;4151;51.110;7.020;2023-08-20T09:59:05;10.33;;;5.10;;
8219;SDS011;4151;51.110;7.020;2023-08-20T10:01:30;8.60;;;5.43;;
8219;SDS011;4151;51.110;7.020;2023-08-20T10:03:56;5.90;;;4.83;;
8219;SDS011;4151;51.110;7.020;2023-08-20T10:06:22;7.00;;;5.60;;
8219;SDS011;4151;51.110;7.020;2023-08-20T10:08:50;6.87;;;5.60;;
8219;SDS011;4151;51.110;7.020;2023-08-20T10:11:16;11.43;;;5.80;;
8219;SDS011;4151;51.110;7.020;2023-08-20T10:13:42;12.13;;;6.83;;
8219;SDS011;4151;51.110;7.020;2023-08-20T10:16:10;8.43;;;5.73;;
8219;SDS011;4151;51.110;7.020;2023-08-20T10:18:37;11.43;;;6.27;;
8219;SDS011;4151;51.110;7.020;2023-08-20T10:21:04;7.30;;;5.90;;
8219;SDS011;4151;51.110;7.020;2023-08-20T10:23:30;11.80;;;5.77;;
8219;SDS011;4151;51.110;7.020;2023-08-20T10:26:06;8.13;;;4.40;;
8219;SDS011;4151;51.110;7.020;2023-08-20T10:28:33;8.20;;;5.30;;
8219;SDS011;4151;51.110;7.020;2023-08-20T10:31:32;5.83;;;4.70;;
8219;SDS011;4151;51.110;7.020;2023-08-20T10:33:54;8.97;;;5.63;;
8219;SDS011;4151;51.110;7.020;2023-08-20T10:36:21;10.13;;;5.40;;
8219;SDS011;4151;51.110;7.020;2023-08-20T10:38:54;8.60;;;5.50;;
8219;SDS011;4151;51.110;7.020;2023-08-20T10:41:24;9.57;;;6.00;;
8219;SDS011;4151;51.110;7.020;2023-08-20T10:43:51;8.97;;;5.83;;
8219;SDS011;4151;51.110;7.020;2023-08-20T10:46:21;7.83;;;5.90;;
8219;SDS011;4151;51.110;7.020;2023-08-20T10:54:03;10.40;;;5.43;;
8219;SDS011;4151;51.110;7.020;2023-08-20T10:56:41;6.57;;;5.40;;
8219;SDS011;4151;51.110;7.020;2023-08-20T10:59:14;9.03;;;6.00;;
8219;SDS011;4151;51.110;7.020;2023-08-20T11:01:45;11.00;;;6.67;;
8219;SDS011;4151;51.110;7.020;2023-08-20T11:04:12;7.07;;;6.03;;
8219;SDS011;4151;51.110;7.020;2023-08-20T11:06:40;8.00;;;5.83;;
8219;SDS011;4151;51.110;7.020;2023-08-20T11:09:06;10.60;;;6.30;;
8219;SDS011;4151;51.110;7.020;2023-08-20T11:11:32;9.47;;;5.10;;
8219;SDS011;4151;51.110;7.020;2023-08-20T11:14:05;7.80;;;4.53;;
8219;SDS011;4151;51.110;7.020;2023-08-20T11:16:32;7.50;;;5.57;;
8219;SDS011;4151;51.110;7.020;2023-08-20T11:18:59;9.43;;;5.13;;
8219;SDS011;4151;51.110;7.020;2023-08-20T11:21:25;11.03;;;5.70;;
8219;SDS011;4151;51.110;7.020;2023-08-20T11:23:51;8.37;;;5.10;;
8219;SDS011;4151;51.110;7.020;2023-08-20T11:26:17;6.43;;;5.33;;
8219;SDS011;4151;51.110;7.020;2023-08-20T11:28:45;6.13;;;5.13;;
8219;SDS011;4151;51.110;7.020;2023-08-20T11:31:11;10.17;;;5.30;;
8219;SDS011;4151;51.110;7.020;2023-08-20T11:33:37;6.67;;;5.20;;
8219;SDS011;4151;51.110;7.020;2023-08-20T11:36:04;7.60;;;5.07;;
8219;SDS011;4151;51.110;7.020;2023-08-20T11:38:30;49.73;;;39.13;;
8219;SDS011;4151;51.110;7.020;2023-08-20T11:40:59;31.60;;;27.23;;
8219;SDS011;4151;51.110;7.020;2023-08-20T11:43:28;55.90;;;34.30;;
8219;SDS011;4151;51.110;7.020;2023-08-20T11:45:54;21.53;;;15.40;;
8219;SDS011;4151;51.110;7.020;2023-08-20T11:48:20;10.00;;;4.87;;
8219;SDS011;4151;51.110;7.020;2023-08-20T11:50:47;7.17;;;4.13;;
8219;SDS011;4151;51.110;7.020;2023-08-20T11:53:13;5.13;;;4.33;;
8219;SDS011;4151;51.110;7.020;2023-08-20T11:55:39;6.63;;;5.23;;
8219;SDS011;4151;51.110;7.020;2023-08-20T11:58:08;7.80;;;5.33;;
8219;SDS011;4151;51.110;7.020;2023-08-20T12:00:36;7.13;;;5.60;;
8219;SDS011;4151;51.110;7.020;2023-08-20T12:03:01;7.33;;;4.60;;
8219;SDS011;4151;51.110;7.020;2023-08-20T12:05:29;9.07;;;5.00;;
8219;SDS011;4151;51.110;7.020;2023-08-20T12:07:55;6.10;;;4.63;;
8219;SDS011;4151;51.110;7.020;2023-08-20T12:10:22;5.47;;;4.33;;
8219;SDS011;4151;51.110;7.020;2023-08-20T12:12:51;7.30;;;4.40;;
8219;SDS011;4151;51.110;7.020;2023-08-20T12:15:17;7.30;;;4.47;;
8219;SDS011;4151;51.110;7.020;2023-08-20T12:17:59;4.80;;;4.03;;
8219;SDS011;4151;51.110;7.020;2023-08-20T12:20:29;8.97;;;4.20;;
8219;SDS011;4151;51.110;7.020;2023-08-20T12:22:59;4.47;;;4.07;;
8219;SDS011;4151;51.110;7.020;2023-08-20T12:25:27;4.20;;;3.80;;
8219;SDS011;4151;51.110;7.020;2023-08-20T12:27:54;5.27;;;3.70;;
8219;SDS011;4151;51.110;7.020;2023-08-20T12:30:21;7.43;;;4.37;;
8219;SDS011;4151;51.110;7.020;2023-08-20T12:32:47;6.37;;;3.90;;
8219;SDS011;4151;51.110;7.020;2023-08-20T12:35:12;5.40;;;4.17;;
8219;SDS011;4151;51.110;7.020;2023-08-20T12:37:38;4.03;;;3.60;;
8219;SDS011;4151;51.110;7.020;2023-08-20T12:40:04;5.43;;;4.47;;
8219;SDS011;4151;51.110;7.020;2023-08-20T12:42:33;6.43;;;4.43;;
8219;SDS011;4151;51.110;7.020;2023-08-20T12:44:59;6.33;;;4.70;;
8219;SDS011;4151;51.110;7.020;2023-08-20T12:47:25;5.93;;;5.10;;
8219;SDS011;4151;51.110;7.020;2023-08-20T12:49:50;7.37;;;4.50;;
8219;SDS011;4151;51.110;7.020;2023-08-20T12:52:16;4.87;;;3.60;;
8219;SDS011;4151;51.110;7.020;2023-08-20T12:54:41;5.63;;;3.87;;
8219;SDS011;4151;51.110;7.020;2023-08-20T12:57:07;6.27;;;4.10;;
8219;SDS011;4151;51.110;7.020;2023-08-20T12:59:32;4.80;;;3.43;;
8219;SDS011;4151;51.110;7.020;2023-08-20T13:01:58;3.73;;;3.27;;
8219;SDS011;4151;51.110;7.020;2023-08-20T13:04:23;6.40;;;3.50;;
8219;SDS011;4151;51.110;7.020;2023-08-20T13:06:49;5.90;;;3.90;;
8219;SDS011;4151;51.110;7.020;2023-08-20T13:09:15;4.93;;;3.53;;
8219;SDS011;4151;51.110;7.020;2023-08-20T13:11:41;6.13;;;3.60;;
8219;SDS011;4151;51.110;7.020;2023-08-20T13:14:09;4.00;;;3.60;;
8219;SDS011;4151;51.110;7.020;2023-08-20T13:16:35;4.40;;;4.00;;
8219;SDS011;4151;51.110;7.020;2023-08-20T13:19:01;5.30;;;3.70;;
8219;SDS011;4151;51.110;7.020;2023-08-20T13:21:27;5.10;;;3.80;;
8219;SDS011;4151;51.110;7.020;2023-08-20T13:23:53;5.73;;;4.27;;
8219;SDS011;4151;51.110;7.020;2023-08-20T13:26:18;5.10;;;4.30;;
8219;SDS011;4151;51.110;7.020;2023-08-20T13:28:47;5.60;;;4.50;;
8219;SDS011;4151;51.110;7.020;2023-08-20T13:31:13;5.23;;;4.30;;
8219;SDS011;4151;51.110;7.020;2023-08-20T13:33:38;7.07;;;4.70;;
8219;SDS011;4151;51.110;7.020;2023-08-20T13:36:04;5.47;;;4.17;;
8219;SDS011;4151;51.110;7.020;2023-08-20T13:38:30;6.03;;;4.40;;
8219;SDS011;4151;51.110;7.020;2023-08-20T13:40:56;8.03;;;4.30;;
8219;SDS011;4151;51.110;7.020;2023-08-20T13:43:22;6.00;;;4.43;;
8219;SDS011;4151;51.110;7.020;2023-08-20T13:45:48;5.13;;;3.90;;
8219;SDS011;4151;51.110;7.020;2023-08-20T13:48:14;6.53;;;3.60;;
8219;SDS011;4151;51.110;7.020;2023-08-20T13:50:39;4.87;;;3.60;;
8219;SDS011;4151;51.110;7.020;2023-08-20T13:53:05;6.50;;;5.17;;
8219;SDS011;4151;51.110;7.020;2023-08-20T13:55:30;6.20;;;4.60;;
8219;SDS011;4151;51.110;7.020;2023-08-20T13:57:56;6.33;;;4.60;;
8219;SDS011;4151;51.110;7.020;2023-08-20T14:00:22;6.90;;;4.07;;
8219;SDS011;4151;51.110;7.020;2023-08-20T14:02:47;5.57;;;4.10;;
8219;SDS011;4151;51.110;7.020;2023-08-20T14:05:13;9.90;;;4.27;;
8219;SDS011;4151;51.110;7.020;2023-08-20T14:07:40;5.33;;;3.97;;
8219;SDS011;4151;51.110;7.020;2023-08-20T14:10:06;4.70;;;3.83;;
8219;SDS011;4151;51.110;7.020;2023-08-20T14:12:33;5.03;;;3.87;;
8219;SDS011;4151;51.110;7.020;2023-08-20T14:14:59;5.20;;;3.40;;
8219;SDS011;4151;51.110;7.020;2023-08-20T14:17:24;3.30;;;3.00;;
8219;SDS011;4151;51.110;7.020;2023-08-20T14:19:50;4.50;;;3.93;;
8219;SDS011;4151;51.110;7.020;2023-08-20T14:22:16;5.13;;;3.70;;
8219;SDS011;4151;51.110;7.020;2023-08-20T14:24:42;5.30;;;4.13;;
8219;SDS011;4151;51.110;7.020;2023-08-20T14:27:07;6.07;;;3.30;;
8219;SDS011;4151;51.110;7.020;2023-08-20T14:29:33;4.70;;;4.00;;
8219;SDS011;4151;51.110;7.020;2023-08-20T14:31:59;13.80;;;4.40;;
8219;SDS011;4151;51.110;7.020;2023-08-20T14:34:25;9.30;;;4.57;;
8219;SDS011;4151;51.110;7.020;2023-08-20T14:36:50;5.47;;;4.57;;
8219;SDS011;4151;51.110;7.020;2023-08-20T14:39:16;6.67;;;4.23;;
8219;SDS011;4151;51.110;7.020;2023-08-20T14:41:41;8.33;;;4.47;;
8219;SDS011;4151;51.110;7.020;2023-08-20T14:44:07;4.90;;;4.50;;
8219;SDS011;4151;51.110;7.020;2023-08-20T14:46:32;5.40;;;4.73;;
8219;SDS011;4151;51.110;7.020;2023-08-20T14:48:58;4.40;;;3.40;;
8219;SDS011;4151;51.110;7.020;2023-08-20T14:51:23;4.33;;;3.50;;
8219;SDS011;4151;51.110;7.020;2023-08-20T14:53:49;11.70;;;4.07;;
8219;SDS011;4151;51.110;7.020;2023-08-20T14:56:14;3.65;;;3.10;;
8219;SDS011;4151;51.110;7.020;2023-08-20T14:58:40;3.22;;;2.92;;
8219;SDS011;4151;51.110;7.020;2023-08-20T15:01:05;3.75;;;3.20;;
8219;SDS011;4151;51.110;7.020;2023-08-20T15:03:33;3.22;;;2.80;;
8219;SDS011;4151;51.110;7.020;2023-08-20T15:05:58;4.43;;;3.28;;
8219;SDS011;4151;51.110;7.020;2023-08-20T15:08:24;5.68;;;2.95;;
8219;SDS011;4151;51.110;7.020;2023-08-20T15:10:58;2.75;;;2.55;;